createdAt,value
2018-01-14T00:01:03.357Z,23.30
2018-01-14T00:03:29.699Z,22.67
2018-01-14T00:05:56.136Z,22.00
2018-01-14T00:08:23.234Z,16.53
2018-01-14T00:10:49.587Z,21.00
2018-01-14T00:13:16.010Z,16.13
2018-01-14T00:15:43.129Z,20.47
2018-01-14T00:18:09.469Z,17.60
2018-01-14T00:20:35.863Z,20.10
2018-01-14T00:23:03.155Z,19.10
2018-01-14T00:25:29.521Z,18.27
2018-01-14T00:27:55.895Z,20.43
2018-01-14T00:30:22.243Z,17.20
2018-01-14T00:32:48.641Z,16.03
2018-01-14T00:35:15.016Z,21.50
2018-01-14T00:37:41.334Z,18.10
2018-01-14T00:40:07.807Z,19.83
2018-01-14T00:42:34.227Z,18.27
2018-01-14T00:45:00.599Z,21.93
2018-01-14T00:47:27.007Z,15.77
2018-01-14T00:49:53.385Z,21.10
2018-01-14T00:52:19.741Z,19.23
2018-01-14T00:54:46.078Z,16.33
2018-01-14T00:57:12.455Z,17.83
2018-01-14T00:59:38.820Z,18.20
2018-01-14T01:02:05.798Z,16.00
2018-01-14T01:04:32.132Z,19.57
2018-01-14T01:06:59.259Z,20.50
2018-01-14T01:09:25.638Z,16.60
2018-01-14T01:11:51.990Z,18.47
2018-01-14T01:14:18.382Z,19.30
2018-01-14T01:16:45.490Z,15.57
2018-01-14T01:19:11.874Z,22.23
2018-01-14T01:21:38.231Z,20.40
2018-01-14T01:24:04.997Z,16.70
2018-01-14T01:26:31.442Z,17.80
2018-01-14T01:28:57.790Z,18.57
2018-01-14T01:31:24.136Z,19.30
2018-01-14T01:33:50.487Z,16.63
2018-01-14T01:36:16.867Z,19.17
2018-01-14T01:38:43.258Z,17.97
2018-01-14T01:41:09.607Z,17.83
2018-01-14T01:43:36.291Z,15.60
2018-01-14T01:46:02.910Z,14.00
2018-01-14T01:48:29.366Z,12.27
2018-01-14T01:50:55.754Z,14.93
2018-01-14T01:53:22.109Z,12.00
2018-01-14T01:55:48.482Z,16.50
2018-01-14T01:58:14.827Z,15.33
2018-01-14T02:00:41.184Z,18.03
2018-01-14T02:03:07.534Z,16.27
2018-01-14T02:05:33.891Z,20.00
2018-01-14T02:08:00.214Z,13.70
2018-01-14T02:10:27.323Z,17.23
2018-01-14T02:12:53.691Z,14.83
2018-01-14T02:15:20.040Z,14.27
2018-01-14T02:17:46.384Z,15.40
2018-01-14T02:20:12.823Z,17.57
2018-01-14T02:22:39.313Z,15.70
2018-01-14T02:25:05.737Z,14.50
2018-01-14T02:27:32.103Z,19.63
2018-01-14T02:29:58.448Z,16.37
2018-01-14T02:32:24.758Z,15.80
2018-01-14T02:34:51.134Z,20.00
2018-01-14T02:37:17.471Z,15.40
2018-01-14T02:39:44.590Z,16.80
2018-01-14T02:42:10.992Z,16.30
2018-01-14T02:44:37.326Z,16.13
2018-01-14T02:47:03.963Z,16.77
2018-01-14T02:49:30.334Z,16.40
2018-01-14T02:51:56.922Z,12.40
2018-01-14T02:54:23.274Z,19.23
2018-01-14T02:56:50.370Z,17.50
2018-01-14T02:59:17.476Z,16.80
2018-01-14T03:01:43.822Z,17.50
2018-01-14T03:04:10.186Z,16.03
2018-01-14T03:06:36.562Z,14.87
2018-01-14T03:09:03.059Z,18.63
2018-01-14T03:11:29.457Z,16.90
2018-01-14T03:13:56.570Z,16.77
2018-01-14T03:16:23.702Z,14.03
2018-01-14T03:18:50.139Z,17.70
2018-01-14T03:21:16.462Z,25.43
2018-01-14T03:23:42.834Z,14.70
2018-01-14T03:26:09.183Z,16.63
2018-01-14T03:28:35.558Z,16.93
2018-01-14T03:31:01.949Z,14.23
2018-01-14T03:33:28.305Z,20.80
2018-01-14T03:35:54.684Z,14.07
2018-01-14T03:38:21.047Z,12.20
2018-01-14T03:40:48.182Z,15.70
2018-01-14T03:43:14.511Z,17.97
2018-01-14T03:45:40.847Z,17.13
2018-01-14T03:48:07.206Z,17.13
2018-01-14T03:50:34.398Z,21.23
2018-01-14T03:53:01.486Z,14.00
2018-01-14T03:55:27.882Z,15.47
2018-01-14T03:57:54.295Z,18.53
2018-01-14T04:00:20.629Z,16.10
2018-01-14T04:02:47.000Z,17.37
2018-01-14T04:05:13.331Z,15.27
2018-01-14T04:07:39.693Z,11.93
2018-01-14T04:10:06.459Z,19.50
2018-01-14T04:12:32.914Z,13.87
2018-01-14T04:14:59.247Z,18.77
2018-01-14T04:17:25.778Z,17.60
2018-01-14T04:19:52.135Z,15.10
2018-01-14T04:22:18.508Z,18.00
2018-01-14T04:24:45.633Z,12.20
2018-01-14T04:27:12.003Z,15.60
2018-01-14T04:29:38.400Z,17.10
2018-01-14T04:32:05.340Z,12.67
2018-01-14T04:34:32.533Z,15.00
2018-01-14T04:36:58.862Z,15.73
2018-01-14T04:39:25.215Z,14.67
2018-01-14T04:41:51.870Z,22.87
2018-01-14T04:44:18.283Z,18.23
2018-01-14T04:46:44.630Z,14.30
2018-01-14T04:49:10.970Z,17.13
2018-01-14T04:51:37.352Z,18.73
2018-01-14T04:54:03.998Z,16.47
2018-01-14T04:56:31.159Z,16.37
2018-01-14T04:58:57.518Z,17.70
2018-01-14T05:01:23.882Z,19.27
2018-01-14T05:03:50.246Z,21.87
2018-01-14T05:06:16.619Z,15.20
2018-01-14T05:08:43.010Z,17.40
2018-01-14T05:11:09.526Z,14.13
2018-01-14T05:13:36.635Z,15.37
2018-01-14T05:16:03.100Z,20.07
2018-01-14T05:18:29.496Z,21.03
2018-01-14T05:20:55.888Z,21.17
2018-01-14T05:23:22.270Z,18.60
2018-01-14T05:25:48.622Z,22.83
2018-01-14T05:28:14.984Z,14.00
2018-01-14T05:30:42.067Z,17.80
2018-01-14T05:33:08.442Z,14.30
2018-01-14T05:35:35.605Z,16.33
2018-01-14T05:38:01.990Z,17.70
2018-01-14T05:40:28.354Z,18.10
2018-01-14T05:42:54.702Z,17.77
2018-01-14T05:45:21.082Z,16.47
2018-01-14T05:47:47.450Z,17.97
2018-01-14T05:50:14.550Z,17.83
2018-01-14T05:52:40.930Z,18.13
2018-01-14T05:55:07.356Z,17.03
2018-01-14T05:57:33.739Z,18.83
2018-01-14T06:00:00.849Z,15.60
2018-01-14T06:02:27.186Z,19.33
2018-01-14T06:04:53.718Z,19.57
2018-01-14T06:07:20.095Z,17.10
2018-01-14T06:09:46.459Z,18.73
2018-01-14T06:12:12.955Z,19.23
2018-01-14T06:14:39.326Z,17.40
2018-01-14T06:17:06.202Z,19.30
2018-01-14T06:19:32.653Z,16.27
2018-01-14T06:21:59.106Z,18.50
2018-01-14T06:24:25.426Z,15.77
2018-01-14T06:26:52.891Z,17.03
2018-01-14T06:29:20.017Z,17.77
2018-01-14T06:31:46.383Z,18.50
2018-01-14T06:34:12.778Z,17.50
2018-01-14T06:36:39.171Z,12.80
2018-01-14T06:39:05.674Z,17.20
2018-01-14T06:41:32.786Z,15.53
2018-01-14T06:43:59.910Z,17.77
2018-01-14T06:46:26.294Z,16.53
2018-01-14T06:48:52.662Z,16.13
2018-01-14T06:51:19.094Z,20.37
2018-01-14T06:53:46.218Z,19.47
2018-01-14T06:56:12.723Z,15.50
2018-01-14T06:58:39.907Z,15.27
2018-01-14T07:01:07.180Z,21.03
2018-01-14T07:03:33.650Z,16.17
2018-01-14T07:06:00.975Z,18.00
2018-01-14T07:08:27.599Z,17.23
2018-01-14T07:10:54.227Z,18.30
2018-01-14T07:13:20.825Z,22.73
2018-01-14T07:15:48.273Z,16.97
2018-01-14T07:18:15.497Z,18.43
2018-01-14T07:20:43.002Z,17.27
2018-01-14T07:23:09.689Z,23.03
2018-01-14T07:25:36.369Z,15.40
2018-01-14T07:28:02.999Z,16.40
2018-01-14T07:30:29.603Z,15.73
2018-01-14T07:32:56.299Z,14.27
2018-01-14T07:35:22.827Z,17.27
2018-01-14T07:37:50.316Z,20.70
2018-01-14T07:40:17.546Z,20.13
2018-01-14T07:42:44.014Z,14.90
2018-01-14T07:45:10.641Z,18.07
2018-01-14T07:47:37.180Z,20.53
2018-01-14T07:50:04.319Z,18.17
2018-01-14T07:52:30.907Z,16.60
2018-01-14T07:54:57.372Z,23.10
2018-01-14T07:57:23.926Z,16.57
2018-01-14T07:59:50.435Z,24.23
2018-01-14T08:02:16.981Z,18.90
2018-01-14T08:04:43.509Z,16.43
2018-01-14T08:07:11.411Z,18.17
2018-01-14T08:09:37.879Z,19.20
2018-01-14T08:12:06.928Z,18.30
2018-01-14T08:14:33.489Z,23.03
2018-01-14T08:17:00.308Z,17.37
2018-01-14T08:19:26.867Z,22.00
2018-01-14T08:21:53.382Z,20.43
2018-01-14T08:24:19.827Z,21.70
2018-01-14T08:26:46.283Z,19.10
2018-01-14T08:29:12.757Z,17.30
2018-01-14T08:31:39.990Z,17.47
2018-01-14T08:34:06.979Z,23.63
2018-01-14T08:36:33.535Z,23.93
2018-01-14T08:39:00.043Z,18.87
2018-01-14T08:41:26.566Z,17.80
2018-01-14T08:43:53.414Z,13.90
2018-01-14T08:46:20.592Z,23.87
2018-01-14T08:48:47.998Z,22.67
2018-01-14T08:51:15.291Z,18.70
2018-01-14T08:53:42.027Z,17.13
2018-01-14T08:56:10.089Z,22.60
2018-01-14T08:58:37.539Z,21.00
2018-01-14T09:01:04.220Z,19.00
2018-01-14T09:03:30.894Z,16.93
2018-01-14T09:05:57.730Z,20.47
2018-01-14T09:08:24.190Z,15.93
2018-01-14T09:10:52.610Z,16.60
2018-01-14T09:13:19.798Z,14.97
2018-01-14T09:15:46.312Z,19.47
2018-01-14T09:18:13.545Z,18.93
2018-01-14T09:20:39.995Z,19.23
2018-01-14T09:23:06.483Z,23.00
2018-01-14T09:25:32.951Z,20.90
2018-01-14T09:27:59.481Z,17.00
2018-01-14T09:30:40.375Z,18.60
2018-01-14T09:33:09.058Z,16.07
2018-01-14T09:35:35.673Z,17.47
2018-01-14T09:38:02.421Z,16.47
2018-01-14T09:40:28.885Z,20.63
2018-01-14T09:42:55.346Z,23.37
2018-01-14T09:45:21.854Z,20.77
2018-01-14T09:47:48.391Z,23.00
2018-01-14T09:50:14.843Z,19.40
2018-01-14T09:52:41.443Z,21.20
2018-01-14T09:55:07.939Z,22.70
2018-01-14T09:57:34.459Z,25.07
2018-01-14T10:00:01.039Z,20.13
2018-01-14T10:02:27.635Z,21.17
2018-01-14T10:04:54.208Z,21.90
2018-01-14T10:07:22.400Z,20.20
2018-01-14T10:09:49.755Z,17.60
2018-01-14T10:12:16.332Z,23.60
2018-01-14T10:14:42.970Z,18.93
2018-01-14T10:17:09.553Z,17.73
2018-01-14T10:19:36.079Z,21.60
2018-01-14T10:22:02.956Z,20.60
2018-01-14T10:24:29.666Z,19.67
2018-01-14T10:26:56.210Z,21.77
2018-01-14T10:29:22.801Z,22.37
2018-01-14T10:31:50.703Z,22.27
2018-01-14T10:34:17.165Z,17.97
2018-01-14T10:36:44.411Z,30.13
2018-01-14T10:39:10.867Z,22.97
2018-01-14T10:41:37.419Z,21.00
2018-01-14T10:44:05.131Z,19.30
2018-01-14T10:46:31.617Z,18.57
2018-01-14T10:48:58.140Z,18.83
2018-01-14T10:51:24.654Z,23.47
2018-01-14T10:53:51.170Z,22.07
2018-01-14T10:56:18.696Z,21.07
2018-01-14T10:58:45.729Z,20.50
2018-01-14T11:01:12.255Z,23.97
2018-01-14T11:03:40.743Z,22.43
2018-01-14T11:06:07.945Z,18.47
2018-01-14T11:08:35.189Z,22.67
2018-01-14T11:11:02.055Z,23.83
2018-01-14T11:13:28.536Z,19.60
2018-01-14T11:15:56.408Z,21.37
2018-01-14T11:18:22.992Z,23.40
2018-01-14T11:20:49.559Z,24.73
2018-01-14T11:23:16.091Z,18.83
2018-01-14T11:25:42.615Z,25.93
2018-01-14T11:28:09.163Z,21.93
2018-01-14T11:30:35.655Z,24.10
2018-01-14T11:33:02.269Z,18.90
2018-01-14T11:35:28.783Z,24.30
2018-01-14T11:37:55.286Z,28.10
2018-01-14T11:40:22.083Z,25.57
2018-01-14T11:42:49.328Z,21.00
2018-01-14T11:45:15.764Z,28.40
2018-01-14T11:47:42.276Z,25.67
2018-01-14T11:50:08.778Z,18.60
2018-01-14T11:52:35.279Z,26.40
2018-01-14T11:55:01.864Z,26.87
2018-01-14T11:57:28.367Z,21.47
2018-01-14T11:59:55.230Z,21.63
2018-01-14T12:02:22.662Z,22.57
2018-01-14T12:04:49.056Z,24.20
2018-01-14T12:07:15.834Z,25.23
2018-01-14T12:09:43.003Z,23.40
2018-01-14T12:12:09.500Z,22.90
2018-01-14T12:14:36.739Z,23.87
2018-01-14T12:17:03.323Z,21.23
2018-01-14T12:19:29.935Z,23.40
2018-01-14T12:21:56.445Z,31.87
2018-01-14T12:24:22.962Z,18.53
2018-01-14T12:26:49.421Z,20.23
2018-01-14T12:29:15.998Z,22.33
2018-01-14T12:31:43.594Z,21.23
2018-01-14T12:37:09.793Z,22.50
2018-01-14T12:39:36.390Z,19.70
2018-01-14T12:42:03.378Z,19.63
2018-01-14T12:44:31.221Z,18.17
2018-01-14T12:46:57.794Z,18.17
2018-01-14T12:49:24.208Z,16.30
2018-01-14T12:51:50.767Z,19.90
2018-01-14T12:54:17.353Z,22.37
2018-01-14T12:56:43.882Z,19.67
2018-01-14T12:59:10.594Z,28.83
2018-01-14T13:01:37.141Z,21.20
2018-01-14T13:04:04.288Z,26.53
2018-01-14T13:06:30.932Z,24.03
2018-01-14T13:08:57.892Z,20.13
2018-01-14T13:11:25.164Z,19.10
2018-01-14T13:13:52.562Z,21.40
2018-01-14T13:16:19.997Z,20.67
2018-01-14T13:18:47.313Z,22.10
2018-01-14T13:21:13.976Z,19.57
2018-01-14T13:23:40.617Z,21.20
2018-01-14T13:26:08.473Z,22.30
2018-01-14T13:28:35.221Z,17.97
2018-01-14T13:31:02.199Z,26.17
2018-01-14T13:33:28.935Z,25.57
2018-01-14T13:35:55.503Z,17.53
2018-01-14T13:38:23.053Z,16.40
2018-01-14T13:40:49.931Z,18.87
2018-01-14T13:43:16.466Z,19.60
2018-01-14T13:45:44.399Z,23.20
2018-01-14T13:48:11.001Z,21.73
2018-01-14T13:50:37.613Z,19.63
2018-01-14T13:53:04.443Z,19.60
2018-01-14T13:55:31.149Z,20.33
2018-01-14T13:57:57.657Z,19.40
2018-01-14T14:00:24.602Z,23.10
2018-01-14T14:02:51.862Z,19.93
2018-01-14T14:05:18.508Z,23.57
2018-01-14T14:07:45.207Z,27.27
2018-01-14T14:10:12.679Z,22.67
2018-01-14T14:12:39.387Z,15.87
2018-01-14T14:15:06.164Z,24.93
2018-01-14T14:17:32.800Z,20.73
2018-01-14T14:20:00.392Z,24.13
2018-01-14T14:22:27.354Z,18.77
2018-01-14T14:24:54.105Z,17.60
2018-01-14T14:27:20.961Z,20.67
2018-01-14T14:29:49.911Z,20.00
2018-01-14T14:32:16.744Z,19.63
2018-01-14T14:34:45.064Z,21.43
2018-01-14T14:37:12.184Z,23.60
2018-01-14T14:39:38.877Z,21.53
2018-01-14T14:42:07.129Z,22.10
2018-01-14T14:44:34.787Z,25.50
2018-01-14T14:47:02.584Z,21.50
2018-01-14T14:49:30.009Z,20.83
2018-01-14T14:51:56.661Z,24.80
2018-01-14T14:54:23.562Z,21.87
2018-01-14T14:56:50.294Z,26.07
2018-01-14T14:59:16.871Z,23.93
2018-01-14T15:01:43.645Z,21.93
2018-01-14T15:07:03.865Z,21.13
2018-01-14T15:09:31.303Z,24.23
2018-01-14T15:11:58.075Z,23.67
2018-01-14T15:14:25.055Z,22.13
2018-01-14T15:16:52.371Z,24.47
2018-01-14T15:19:19.675Z,16.90
2018-01-14T15:21:46.845Z,20.90
2018-01-14T15:24:13.566Z,20.77
2018-01-14T15:26:42.024Z,22.23
2018-01-14T15:29:09.367Z,23.87
2018-01-14T15:31:36.007Z,27.80
2018-01-14T15:34:04.359Z,23.73
2018-01-14T15:36:31.413Z,25.50
2018-01-14T15:38:58.042Z,28.13
2018-01-14T15:41:25.068Z,20.23
2018-01-14T15:43:51.958Z,21.03
2018-01-14T15:46:19.410Z,23.27
2018-01-14T15:48:47.514Z,24.00
2018-01-14T15:51:14.261Z,25.57
2018-01-14T15:53:40.750Z,22.33
2018-01-14T15:56:07.598Z,25.20
2018-01-14T15:58:34.320Z,26.90
2018-01-14T16:01:01.219Z,24.50
2018-01-14T16:03:28.781Z,22.13
2018-01-14T16:05:55.603Z,24.00
2018-01-14T16:08:24.426Z,17.93
2018-01-14T16:10:51.057Z,20.63
2018-01-14T16:13:19.349Z,24.10
2018-01-14T16:15:46.079Z,16.00
2018-01-14T16:18:12.780Z,23.13
2018-01-14T16:20:40.865Z,24.37
2018-01-14T16:23:07.745Z,20.77
2018-01-14T16:25:34.665Z,22.70
2018-01-14T16:28:01.296Z,25.10
2018-01-14T16:30:27.884Z,21.50
2018-01-14T16:32:55.127Z,19.63
2018-01-14T16:35:22.043Z,22.43
2018-01-14T16:37:48.724Z,35.50
2018-01-14T16:40:15.287Z,26.30
2018-01-14T16:42:41.811Z,23.07
2018-01-14T16:45:08.253Z,22.60
2018-01-14T16:47:34.725Z,24.07
2018-01-14T16:50:01.577Z,23.23
2018-01-14T16:52:28.950Z,24.70
2018-01-14T16:54:55.535Z,21.77
2018-01-14T16:57:22.065Z,22.30
2018-01-14T16:59:49.227Z,21.93
2018-01-14T17:02:15.781Z,28.50
2018-01-14T17:04:42.196Z,20.93
2018-01-14T17:07:09.446Z,25.47
2018-01-14T17:09:36.061Z,19.00
2018-01-14T17:12:02.947Z,20.67
2018-01-14T17:14:29.415Z,27.23
2018-01-14T17:16:56.996Z,25.47
2018-01-14T17:19:24.236Z,22.83
2018-01-14T17:21:50.765Z,20.73
2018-01-14T17:24:17.235Z,24.70
2018-01-14T17:26:44.181Z,27.80
2018-01-14T17:29:10.824Z,21.43
2018-01-14T17:31:37.601Z,22.00
2018-01-14T17:34:05.040Z,21.97
2018-01-14T17:36:32.640Z,26.93
2018-01-14T17:38:59.176Z,24.47
2018-01-14T17:41:26.502Z,22.83
2018-01-14T17:43:52.959Z,24.33
2018-01-14T17:46:19.757Z,25.97
2018-01-14T17:48:46.268Z,25.00
2018-01-14T17:51:13.497Z,23.57
2018-01-14T17:53:40.067Z,27.67
2018-01-14T17:56:07.361Z,25.37
2018-01-14T17:58:34.211Z,24.40
2018-01-14T18:01:01.066Z,25.37
2018-01-14T18:03:28.578Z,24.80
2018-01-14T18:05:55.390Z,24.13
2018-01-14T18:08:22.896Z,22.50
2018-01-14T18:10:49.310Z,31.43
2018-01-14T18:13:15.777Z,20.80
2018-01-14T18:15:42.439Z,24.20
2018-01-14T18:18:08.909Z,28.43
2018-01-14T18:20:35.354Z,30.33
2018-01-14T18:23:01.845Z,24.60
2018-01-14T18:25:28.347Z,25.07
2018-01-14T18:27:56.328Z,26.40
2018-01-14T18:30:23.106Z,26.73
2018-01-14T18:32:50.281Z,25.50
2018-01-14T18:35:17.567Z,43.30
2018-01-14T18:37:44.388Z,25.13
2018-01-14T18:40:11.619Z,26.47
2018-01-14T18:42:38.410Z,28.17
2018-01-14T18:45:05.961Z,26.37
2018-01-14T18:47:33.454Z,29.23
2018-01-14T18:50:00.014Z,29.80
2018-01-14T18:52:26.614Z,28.37
2018-01-14T18:54:53.113Z,26.90
2018-01-14T18:57:19.581Z,26.17
2018-01-14T18:59:46.069Z,30.43
2018-01-14T19:02:12.477Z,25.50
2018-01-14T19:04:38.972Z,23.50
2018-01-14T19:07:05.636Z,23.53
2018-01-14T19:09:32.142Z,28.33
2018-01-14T19:11:58.655Z,29.10
2018-01-14T19:14:25.137Z,30.90
2018-01-14T19:16:51.688Z,21.40
2018-01-14T19:19:18.339Z,23.13
2018-01-14T19:21:44.819Z,25.20
2018-01-14T19:24:11.296Z,25.50
2018-01-14T19:26:37.771Z,20.40
2018-01-14T19:29:04.769Z,23.17
2018-01-14T19:31:31.269Z,25.30
2018-01-14T19:33:57.666Z,22.10
2018-01-14T19:36:24.231Z,23.10
2018-01-14T19:38:50.710Z,26.63
2018-01-14T19:41:17.311Z,28.57
2018-01-14T19:43:44.184Z,28.53
2018-01-14T19:46:10.681Z,24.47
2018-01-14T19:48:37.148Z,36.37
2018-01-14T19:51:05.014Z,24.03
2018-01-14T19:53:32.568Z,21.57
2018-01-14T19:55:59.013Z,19.93
2018-01-14T19:58:26.238Z,23.77
2018-01-14T20:00:52.749Z,18.73
2018-01-14T20:03:20.021Z,31.37
2018-01-14T20:05:46.624Z,21.97
2018-01-14T20:08:13.173Z,24.50
2018-01-14T20:10:39.815Z,22.37
2018-01-14T20:13:06.348Z,22.83
2018-01-14T20:15:32.869Z,24.83
2018-01-14T20:17:59.330Z,32.07
2018-01-14T20:20:25.865Z,28.83
2018-01-14T20:22:52.325Z,26.50
2018-01-14T20:25:18.872Z,26.20
2018-01-14T20:27:45.518Z,26.50
2018-01-14T20:30:11.990Z,34.33
2018-01-14T20:32:38.420Z,36.67
2018-01-14T20:35:05.471Z,31.97
2018-01-14T20:37:32.776Z,23.77
2018-01-14T20:39:59.277Z,27.83
2018-01-14T20:42:26.613Z,25.80
2018-01-14T20:44:54.160Z,22.00
2018-01-14T20:47:21.514Z,23.23
2018-01-14T20:49:47.982Z,18.73
2018-01-14T20:52:14.569Z,23.47
2018-01-14T20:54:41.045Z,25.03
2018-01-14T20:57:07.535Z,30.80
2018-01-14T20:59:34.068Z,30.80
2018-01-14T21:02:00.646Z,24.23
2018-01-14T21:04:27.161Z,23.03
2018-01-14T21:06:54.443Z,20.73
2018-01-14T21:09:20.928Z,22.20
2018-01-14T21:11:47.411Z,27.30
2018-01-14T21:14:14.621Z,26.10
2018-01-14T21:16:41.165Z,22.57
2018-01-14T21:19:07.675Z,23.70
2018-01-14T21:21:34.105Z,21.93
2018-01-14T21:24:00.561Z,28.37
2018-01-14T21:26:27.041Z,27.40
2018-01-14T21:28:54.022Z,25.13
2018-01-14T21:31:20.595Z,31.13
2018-01-14T21:33:47.781Z,24.13
2018-01-14T21:36:14.310Z,24.50
2018-01-14T21:38:40.826Z,23.43
2018-01-14T21:41:07.340Z,31.67
2018-01-14T21:43:34.214Z,25.37
2018-01-14T21:46:00.798Z,24.87
2018-01-14T21:48:27.336Z,24.57
2018-01-14T21:50:53.858Z,24.20
2018-01-14T21:53:21.125Z,28.70
2018-01-14T21:55:49.085Z,35.43
2018-01-14T21:58:16.303Z,23.97
2018-01-14T22:00:42.828Z,23.37
2018-01-14T22:03:09.651Z,27.00
2018-01-14T22:05:36.270Z,24.03
2018-01-14T22:08:03.154Z,23.90
2018-01-14T22:10:29.871Z,28.70
2018-01-14T22:12:56.286Z,25.73
2018-01-14T22:15:22.773Z,23.60
2018-01-14T22:17:49.536Z,27.00
2018-01-14T22:20:16.076Z,22.50
2018-01-14T22:22:42.629Z,25.33
2018-01-14T22:25:09.181Z,26.20
2018-01-14T22:27:37.215Z,30.87
2018-01-14T22:30:04.326Z,29.63
2018-01-14T22:32:31.584Z,29.07
2018-01-14T22:34:58.813Z,28.43
2018-01-14T22:37:25.249Z,23.37
2018-01-14T22:39:51.723Z,25.27
2018-01-14T22:42:18.729Z,30.13
2018-01-14T22:44:45.177Z,28.27
2018-01-14T22:47:11.661Z,27.47
2018-01-14T22:49:38.900Z,23.60
2018-01-14T22:52:05.886Z,26.07
2018-01-14T22:54:33.227Z,25.30
2018-01-14T22:56:59.673Z,26.30
2018-01-14T22:59:26.151Z,19.73
2018-01-14T23:01:52.633Z,31.57
2018-01-14T23:04:19.082Z,23.07
2018-01-14T23:06:45.629Z,26.40
2018-01-14T23:09:12.041Z,25.17
2018-01-14T23:11:38.470Z,30.33
2018-01-14T23:14:05.618Z,24.07
2018-01-14T23:16:32.209Z,24.50
2018-01-14T23:18:58.677Z,18.83
2018-01-14T23:21:25.281Z,26.27
2018-01-14T23:23:52.462Z,23.17
2018-01-14T23:26:18.914Z,26.23
2018-01-14T23:28:46.148Z,27.40
2018-01-14T23:31:12.830Z,24.47
2018-01-14T23:33:39.274Z,23.33
2018-01-14T23:36:06.490Z,28.57
2018-01-14T23:38:32.948Z,25.20
2018-01-14T23:40:59.378Z,21.90
2018-01-14T23:43:25.773Z,22.20
2018-01-14T23:45:53.014Z,27.43
2018-01-14T23:48:19.475Z,24.67
2018-01-14T23:50:46.691Z,20.00
2018-01-14T23:53:13.080Z,20.90
2018-01-14T23:55:40.237Z,22.63
2018-01-14T23:58:07.509Z,27.23
